createdAt,value
2023-05-10T00:00:22.633Z,7.40
2023-05-10T00:03:14.070Z,10.20
2023-05-10T00:05:44.094Z,9.35
2023-05-10T00:08:11.121Z,12.25
2023-05-10T00:10:38.537Z,6.88
2023-05-10T00:13:05.692Z,6.82
2023-05-10T00:15:33.106Z,6.63
2023-05-10T00:18:00.252Z,5.15
2023-05-10T00:20:30.365Z,8.82
2023-05-10T00:22:57.385Z,6.60
2023-05-10T00:25:27.027Z,7.32
2023-05-10T00:27:54.103Z,8.07
2023-05-10T00:30:21.683Z,6.00
2023-05-10T00:32:48.749Z,9.30
2023-05-10T00:35:16.668Z,5.18
2023-05-10T00:37:43.708Z,5.93
2023-05-10T00:40:13.862Z,5.25
2023-05-10T00:42:41.175Z,5.45
2023-05-10T00:45:08.925Z,5.50
2023-05-10T00:47:36.238Z,7.95
2023-05-10T00:50:04.071Z,5.78
2023-05-10T00:52:33.917Z,5.90
2023-05-10T00:55:01.726Z,5.82
2023-05-10T00:57:28.927Z,5.50
2023-05-10T00:59:56.326Z,6.70
2023-05-10T01:02:23.416Z,6.72
2023-05-10T01:04:51.106Z,6.80
2023-05-10T01:07:18.159Z,7.22
2023-05-10T01:09:45.579Z,5.20
2023-05-10T01:12:13.190Z,5.55
2023-05-10T01:14:40.908Z,6.03
2023-05-10T01:17:09.193Z,5.55
2023-05-10T01:19:36.817Z,6.85
2023-05-10T01:22:12.711Z,8.40
2023-05-10T01:25:03.986Z,5.78
2023-05-10T01:27:48.042Z,5.88
2023-05-10T01:30:39.647Z,4.97
2023-05-10T01:33:17.034Z,6.22
2023-05-10T01:36:06.171Z,6.55
2023-05-10T01:38:51.604Z,6.18
2023-05-10T01:41:42.371Z,5.15
2023-05-10T01:44:17.869Z,6.57
2023-05-10T01:46:52.470Z,5.78
2023-05-10T01:49:30.317Z,6.95
2023-05-10T01:52:07.259Z,5.47
2023-05-10T01:54:39.586Z,8.93
2023-05-10T01:57:09.108Z,5.85
2023-05-10T01:59:37.725Z,8.85
2023-05-10T02:02:06.559Z,6.32
2023-05-10T02:04:38.201Z,6.50
2023-05-10T02:07:07.353Z,6.20
2023-05-10T02:09:35.592Z,5.85
2023-05-10T02:12:04.883Z,5.97
2023-05-10T02:14:36.260Z,8.63
2023-05-10T02:17:08.585Z,6.25
2023-05-10T02:19:40.049Z,7.75
2023-05-10T02:22:09.257Z,5.22
2023-05-10T02:24:38.336Z,6.82
2023-05-10T02:27:06.483Z,4.72
2023-05-10T02:29:37.468Z,6.30
2023-05-10T02:32:05.497Z,6.78
2023-05-10T02:34:35.628Z,6.93
2023-05-10T02:37:03.881Z,7.32
2023-05-10T02:39:32.776Z,5.97
2023-05-10T02:42:02.705Z,5.35
2023-05-10T02:44:37.132Z,6.03
2023-05-10T02:47:07.027Z,6.70
2023-05-10T02:49:36.594Z,5.93
2023-05-10T02:52:07.681Z,6.78
2023-05-10T02:54:42.183Z,6.03
2023-05-10T02:57:17.829Z,7.65
2023-05-10T02:59:44.978Z,5.18
2023-05-10T03:02:14.961Z,5.78
2023-05-10T03:04:42.200Z,6.53
2023-05-10T03:07:14.291Z,8.15
2023-05-10T03:09:41.974Z,7.45
2023-05-10T03:12:34.731Z,7.78
2023-05-10T03:15:23.635Z,6.65
2023-05-10T03:18:02.356Z,8.27
2023-05-10T03:20:51.258Z,7.85
2023-05-10T03:23:18.544Z,6.68
2023-05-10T03:25:49.290Z,6.32
2023-05-10T03:28:18.641Z,7.97
2023-05-10T03:30:47.053Z,6.78
2023-05-10T03:33:19.046Z,6.72
2023-05-10T03:35:48.836Z,5.90
2023-05-10T03:38:16.239Z,6.53
2023-05-10T03:40:43.271Z,9.55
2023-05-10T03:43:10.617Z,8.93
2023-05-10T03:45:37.728Z,6.15
2023-05-10T03:48:07.883Z,6.82
2023-05-10T03:50:37.416Z,7.30
2023-05-10T03:53:04.785Z,6.53
2023-05-10T03:55:31.800Z,5.85
2023-05-10T03:57:59.176Z,5.65
2023-05-10T04:00:26.298Z,6.15
2023-05-10T04:02:53.691Z,5.50
2023-05-10T04:05:20.819Z,5.75
2023-05-10T04:07:48.239Z,5.40
2023-05-10T04:10:15.667Z,6.50
2023-05-10T04:12:43.296Z,7.93
2023-05-10T04:15:10.611Z,9.70
2023-05-10T04:17:38.016Z,9.10
2023-05-10T04:20:07.979Z,9.30
2023-05-10T04:22:35.392Z,7.05
2023-05-10T04:25:02.461Z,6.20
2023-05-10T04:27:29.793Z,7.25
2023-05-10T04:29:59.086Z,7.53
2023-05-10T04:32:26.472Z,6.95
2023-05-10T04:34:53.638Z,9.32
2023-05-10T04:37:21.032Z,6.95
2023-05-10T04:39:48.178Z,13.00
2023-05-10T04:42:15.530Z,8.38
2023-05-10T04:44:42.688Z,9.32
2023-05-10T04:47:12.502Z,8.60
2023-05-10T04:49:42.226Z,5.90
2023-05-10T04:52:12.006Z,6.15
2023-05-10T04:54:41.297Z,5.45
2023-05-10T04:57:08.633Z,7.35
2023-05-10T04:59:38.105Z,5.95
2023-05-10T05:02:06.668Z,10.80
2023-05-10T05:04:36.143Z,4.97
2023-05-10T05:07:03.849Z,5.25
2023-05-10T05:09:30.976Z,7.18
2023-05-10T05:11:58.620Z,6.45
2023-05-10T05:14:27.898Z,5.63
2023-05-10T05:16:55.248Z,5.10
2023-05-10T05:19:22.365Z,6.55
2023-05-10T05:21:54.289Z,5.22
2023-05-10T05:24:23.561Z,5.22
2023-05-10T05:26:53.378Z,6.25
2023-05-10T05:29:20.413Z,4.90
2023-05-10T05:31:47.979Z,8.75
2023-05-10T05:34:15.078Z,8.57
2023-05-10T05:36:42.439Z,8.77
2023-05-10T05:39:09.475Z,8.70
2023-05-10T05:41:36.967Z,5.72
2023-05-10T05:44:04.128Z,8.48
2023-05-10T05:46:31.478Z,5.50
2023-05-10T05:49:01.004Z,6.07
2023-05-10T05:51:28.348Z,6.53
2023-05-10T05:53:55.413Z,5.85
2023-05-10T05:56:22.752Z,4.88
2023-05-10T05:58:49.812Z,5.57
2023-05-10T06:01:19.685Z,5.88
2023-05-10T06:03:46.901Z,4.00
2023-05-10T06:06:14.336Z,6.55
2023-05-10T06:08:41.486Z,12.20
2023-05-10T06:11:08.930Z,10.80
2023-05-10T06:13:36.046Z,6.03
2023-05-10T06:16:04.173Z,6.50
2023-05-10T06:18:33.632Z,8.70
2023-05-10T06:21:03.475Z,6.10
2023-05-10T06:23:30.551Z,5.20
2023-05-10T06:25:57.903Z,9.10
2023-05-10T06:28:24.993Z,5.97
2023-05-10T06:30:52.332Z,5.50
2023-05-10T06:33:19.398Z,7.15
2023-05-10T06:35:46.753Z,6.50
2023-05-10T06:38:13.760Z,6.10
2023-05-10T06:40:44.261Z,7.70
2023-05-10T06:43:11.327Z,4.13
2023-05-10T06:45:38.707Z,6.03
2023-05-10T06:48:08.750Z,5.85
2023-05-10T06:50:36.407Z,5.40
2023-05-10T06:53:07.923Z,4.28
2023-05-10T06:55:35.334Z,7.80
2023-05-10T06:58:02.370Z,5.10
2023-05-10T07:00:32.222Z,5.55
2023-05-10T07:02:59.412Z,5.82
2023-05-10T07:05:26.849Z,5.85
2023-05-10T07:07:53.906Z,4.35
2023-05-10T07:10:21.415Z,4.20
2023-05-10T07:12:50.843Z,5.00
2023-05-10T07:15:18.573Z,4.78
2023-05-10T07:17:46.346Z,7.78
2023-05-10T07:20:14.027Z,15.20
2023-05-10T07:22:41.205Z,4.95
2023-05-10T07:25:08.893Z,5.28
2023-05-10T07:27:35.939Z,10.20
2023-05-10T07:30:03.367Z,7.88
2023-05-10T07:32:33.230Z,6.88
2023-05-10T07:35:02.869Z,4.18
2023-05-10T07:37:29.997Z,8.10
2023-05-10T07:39:57.417Z,4.15
2023-05-10T07:42:24.556Z,6.63
2023-05-10T07:44:51.918Z,5.43
2023-05-10T07:47:19.147Z,4.55
2023-05-10T07:49:46.554Z,7.70
2023-05-10T07:52:13.601Z,3.80
2023-05-10T07:54:40.929Z,7.65
2023-05-10T07:57:07.986Z,3.47
2023-05-10T07:59:35.306Z,9.65
2023-05-10T08:02:04.919Z,4.75
2023-05-10T08:04:32.515Z,8.90
2023-05-10T08:06:59.715Z,4.38
2023-05-10T08:09:27.092Z,6.68
2023-05-10T08:11:54.157Z,5.38
2023-05-10T08:14:21.534Z,4.55
2023-05-10T08:16:48.636Z,5.55
2023-05-10T08:19:15.973Z,5.88
2023-05-10T08:21:43.015Z,5.28
2023-05-10T08:24:10.324Z,7.25
2023-05-10T08:26:39.713Z,14.32
2023-05-10T08:29:07.122Z,7.03
2023-05-10T08:31:34.282Z,8.95
2023-05-10T08:34:04.007Z,6.65
2023-05-10T08:36:31.042Z,6.63
2023-05-10T08:39:02.948Z,6.13
2023-05-10T08:41:34.231Z,5.78
2023-05-10T08:44:05.083Z,5.03
2023-05-10T08:46:35.240Z,11.07
2023-05-10T08:49:04.971Z,7.50
2023-05-10T08:51:37.215Z,3.25
2023-05-10T08:54:05.467Z,4.97
2023-05-10T08:56:35.068Z,6.95
2023-05-10T08:59:05.010Z,4.22
2023-05-10T09:01:33.456Z,3.83
2023-05-10T09:04:03.171Z,4.72
2023-05-10T09:06:30.604Z,5.30
2023-05-10T09:08:57.974Z,10.63
2023-05-10T09:11:25.321Z,6.63
2023-05-10T09:13:55.452Z,8.48
2023-05-10T09:16:23.098Z,5.53
2023-05-10T09:18:52.874Z,12.80
2023-05-10T09:21:22.233Z,6.30
2023-05-10T09:23:49.918Z,5.78
2023-05-10T09:26:17.281Z,4.82
2023-05-10T09:28:57.539Z,7.18
2023-05-10T09:31:24.995Z,6.53
2023-05-10T09:33:52.986Z,8.38
2023-05-10T09:36:20.229Z,4.18
2023-05-10T09:38:52.359Z,5.40
2023-05-10T09:41:28.746Z,5.82
2023-05-10T09:43:58.905Z,4.63
2023-05-10T09:46:26.017Z,5.88
2023-05-10T09:48:55.607Z,3.95
2023-05-10T09:51:23.883Z,3.72
2023-05-10T09:54:14.415Z,4.10
2023-05-10T09:56:42.335Z,6.53
2023-05-10T09:59:13.387Z,5.03
2023-05-10T10:01:40.945Z,7.53
2023-05-10T10:04:10.451Z,7.82
2023-05-10T10:06:41.760Z,5.38
2023-05-10T10:09:10.204Z,4.75
2023-05-10T10:11:40.089Z,7.45
2023-05-10T10:14:07.436Z,5.28
2023-05-10T10:16:34.635Z,9.05
2023-05-10T10:19:02.256Z,4.68
2023-05-10T10:21:29.680Z,9.38
2023-05-10T10:23:59.518Z,6.45
2023-05-10T10:26:26.993Z,6.72
2023-05-10T10:29:21.403Z,8.23
2023-05-10T10:32:03.804Z,6.10
2023-05-10T10:34:32.300Z,7.47
2023-05-10T10:37:05.723Z,13.27
2023-05-10T10:39:33.498Z,6.90
2023-05-10T10:42:00.831Z,5.78
2023-05-10T10:44:38.471Z,6.40
2023-05-10T10:47:14.544Z,5.88
2023-05-10T10:49:41.919Z,5.47
2023-05-10T10:52:41.620Z,6.07
2023-05-10T10:55:20.474Z,5.45
2023-05-10T10:57:51.395Z,4.70
2023-05-10T11:00:30.136Z,4.90
2023-05-10T11:03:05.937Z,9.38
2023-05-10T11:05:40.597Z,5.47
2023-05-10T11:08:21.065Z,4.93
2023-05-10T11:11:00.962Z,6.55
2023-05-10T11:13:35.320Z,4.97
2023-05-10T11:16:13.498Z,7.10
2023-05-10T11:18:40.793Z,8.38
2023-05-10T11:21:10.891Z,6.07
2023-05-10T11:23:40.720Z,8.32
2023-05-10T11:26:10.773Z,7.07
2023-05-10T11:28:50.087Z,6.30
2023-05-10T11:31:20.835Z,4.72
2023-05-10T11:33:51.080Z,6.63
2023-05-10T11:36:20.794Z,5.88
2023-05-10T11:38:50.577Z,5.25
2023-05-10T11:41:19.812Z,9.02
2023-05-10T11:43:56.760Z,7.18
2023-05-10T11:46:26.494Z,4.35
2023-05-10T11:48:59.259Z,7.22
2023-05-10T11:51:26.620Z,9.18
2023-05-10T11:53:59.306Z,9.23
2023-05-10T11:56:29.163Z,8.98
2023-05-10T11:58:58.310Z,10.07
2023-05-10T12:01:26.968Z,5.93
2023-05-10T12:03:55.957Z,4.53
2023-05-10T12:06:23.825Z,5.85
2023-05-10T12:08:50.913Z,7.32
2023-05-10T12:11:20.536Z,5.78
2023-05-10T12:13:47.983Z,5.68
2023-05-10T12:16:16.871Z,5.30
2023-05-10T12:18:49.059Z,6.35
2023-05-10T12:21:16.567Z,6.53
2023-05-10T12:23:46.788Z,5.13
2023-05-10T12:26:15.102Z,7.20
2023-05-10T12:28:42.240Z,8.60
2023-05-10T12:31:09.873Z,11.18
2023-05-10T12:33:46.607Z,6.47
2023-05-10T12:36:17.376Z,6.03
2023-05-10T12:38:46.401Z,3.88
2023-05-10T12:41:15.591Z,6.57
2023-05-10T12:43:45.488Z,4.40
2023-05-10T12:46:15.384Z,5.65
2023-05-10T12:48:43.855Z,6.68
2023-05-10T12:51:11.841Z,10.38
2023-05-10T12:53:45.034Z,6.43
2023-05-10T12:56:13.539Z,5.00
2023-05-10T12:58:40.591Z,5.05
2023-05-10T13:01:08.115Z,5.55
2023-05-10T13:03:35.465Z,8.15
2023-05-10T13:06:02.865Z,5.32
2023-05-10T13:08:33.038Z,3.95
2023-05-10T13:11:01.734Z,6.35
2023-05-10T13:13:28.854Z,7.50
2023-05-10T13:15:56.314Z,3.28
2023-05-10T13:18:23.444Z,6.28
2023-05-10T13:20:50.976Z,4.85
2023-05-10T13:23:18.110Z,3.90
2023-05-10T13:25:51.255Z,4.57
2023-05-10T13:28:20.865Z,5.07
2023-05-10T13:30:48.693Z,3.78
2023-05-10T13:33:17.998Z,6.25
2023-05-10T13:35:45.471Z,5.53
2023-05-10T13:38:15.478Z,4.45
2023-05-10T13:40:43.023Z,4.00
2023-05-10T13:43:12.458Z,7.75
2023-05-10T13:45:40.016Z,3.80
2023-05-10T13:48:12.536Z,3.50
2023-05-10T13:50:42.276Z,4.72
2023-05-10T13:53:09.620Z,6.70
2023-05-10T13:55:39.679Z,6.78
2023-05-10T13:58:09.307Z,5.35
2023-05-10T14:00:38.933Z,6.15
2023-05-10T14:03:06.245Z,5.38
2023-05-10T14:05:33.791Z,4.97
2023-05-10T14:08:00.964Z,5.85
2023-05-10T14:10:28.386Z,4.20
2023-05-10T14:12:55.572Z,5.63
2023-05-10T14:15:23.709Z,5.18
2023-05-10T14:17:50.856Z,4.07
2023-05-10T14:20:18.635Z,7.35
2023-05-10T14:22:48.125Z,4.70
2023-05-10T14:25:16.130Z,5.38
2023-05-10T14:27:45.629Z,4.88
2023-05-10T14:30:15.725Z,2.78
2023-05-10T14:32:45.861Z,3.95
2023-05-10T14:35:18.396Z,4.82
2023-05-10T14:40:14.182Z,6.07
2023-05-10T14:42:41.267Z,7.72
2023-05-10T14:45:09.236Z,6.40
2023-05-10T14:47:38.575Z,6.03
2023-05-10T14:50:09.315Z,6.15
2023-05-10T14:52:36.382Z,6.00
2023-05-10T14:55:06.808Z,6.90
2023-05-10T14:57:33.897Z,6.35
2023-05-10T15:00:03.347Z,6.10
2023-05-10T15:02:32.134Z,4.80
2023-05-10T15:05:02.219Z,4.32
2023-05-10T15:07:29.842Z,7.18
2023-05-10T15:09:57.244Z,4.40
2023-05-10T15:12:26.736Z,5.88
2023-05-10T15:14:54.660Z,6.13
2023-05-10T15:17:21.759Z,4.55
2023-05-10T15:19:49.175Z,5.03
2023-05-10T15:22:16.514Z,5.95
2023-05-10T15:24:44.222Z,6.38
2023-05-10T15:27:11.461Z,5.22
2023-05-10T15:29:41.213Z,4.63
2023-05-10T15:32:23.043Z,7.43
2023-05-10T15:34:50.576Z,5.57
2023-05-10T15:37:17.696Z,3.80
2023-05-10T15:39:45.389Z,5.63
2023-05-10T15:42:15.489Z,5.22
2023-05-10T15:44:42.950Z,7.45
2023-05-10T15:47:10.143Z,6.15
2023-05-10T15:49:38.648Z,8.45
2023-05-10T15:52:06.078Z,4.07
2023-05-10T15:54:39.659Z,6.13
2023-05-10T15:59:34.189Z,3.97
2023-05-10T16:02:01.492Z,6.50
2023-05-10T16:04:29.012Z,5.28
2023-05-10T16:06:56.225Z,6.38
2023-05-10T16:09:25.859Z,4.55
2023-05-10T16:11:55.290Z,4.30
2023-05-10T16:14:25.857Z,5.50
2023-05-10T16:16:53.233Z,6.65
2023-05-10T16:19:23.330Z,6.13
2023-05-10T16:21:50.566Z,4.88
2023-05-10T16:24:18.396Z,6.78
2023-05-10T16:26:46.656Z,3.88
2023-05-10T16:29:14.274Z,6.78
2023-05-10T16:31:44.288Z,7.10
2023-05-10T16:34:11.806Z,7.78
2023-05-10T16:36:39.007Z,5.53
2023-05-10T16:39:06.527Z,6.85
2023-05-10T16:41:34.902Z,5.53
2023-05-10T16:44:03.006Z,5.75
2023-05-10T16:46:30.515Z,5.32
2023-05-10T16:48:58.368Z,5.80
2023-05-10T16:51:26.034Z,7.72
2023-05-10T16:53:56.076Z,9.70
2023-05-10T16:56:26.000Z,6.88
2023-05-10T16:58:53.859Z,7.15
2023-05-10T17:01:21.019Z,5.43
2023-05-10T17:03:53.006Z,6.72
2023-05-10T17:06:21.021Z,4.28
2023-05-10T17:08:54.420Z,5.88
2023-05-10T17:11:22.013Z,7.07
2023-05-10T17:13:52.293Z,7.80
2023-05-10T17:16:19.950Z,9.25
2023-05-10T17:18:47.878Z,6.43
2023-05-10T17:21:17.520Z,7.20
2023-05-10T17:23:47.989Z,7.63
2023-05-10T17:26:17.826Z,8.75
2023-05-10T17:28:47.862Z,7.07
2023-05-10T17:31:17.379Z,6.75
2023-05-10T17:33:45.049Z,5.15
2023-05-10T17:36:12.338Z,7.45
2023-05-10T17:38:42.330Z,6.65
2023-05-10T17:41:09.869Z,6.60
2023-05-10T17:43:37.419Z,8.35
2023-05-10T17:46:04.698Z,7.85
2023-05-10T17:48:32.492Z,9.88
2023-05-10T17:50:59.686Z,10.05
2023-05-10T17:53:27.159Z,10.90
2023-05-10T17:55:56.850Z,10.20
2023-05-10T17:58:25.799Z,6.72
2023-05-10T18:00:54.122Z,7.78
2023-05-10T18:03:21.661Z,7.70
2023-05-10T18:05:49.860Z,8.05
2023-05-10T18:08:17.907Z,6.25
2023-05-10T18:10:45.704Z,6.45
2023-05-10T18:13:13.208Z,8.88
2023-05-10T18:15:42.744Z,10.52
2023-05-10T18:18:13.046Z,9.82
2023-05-10T18:20:42.835Z,9.40
2023-05-10T18:23:11.508Z,7.22
2023-05-10T18:25:41.475Z,9.25
2023-05-10T18:28:09.062Z,9.75
2023-05-10T18:30:37.475Z,7.00
2023-05-10T18:33:04.968Z,8.30
2023-05-10T18:35:34.740Z,9.88
2023-05-10T18:38:03.337Z,9.57
2023-05-10T18:40:33.413Z,8.70
2023-05-10T18:43:03.730Z,8.00
2023-05-10T18:45:35.574Z,9.00
2023-05-10T18:48:03.537Z,10.30
2023-05-10T18:50:30.784Z,11.60
2023-05-10T18:52:58.368Z,15.95
2023-05-10T18:55:30.411Z,10.38
2023-05-10T18:58:01.784Z,10.63
2023-05-10T19:00:29.561Z,13.90
2023-05-10T19:03:01.477Z,12.30
2023-05-10T19:05:29.176Z,14.52
2023-05-10T19:07:59.014Z,16.25
2023-05-10T19:10:28.826Z,12.88
2023-05-10T19:12:59.132Z,10.43
2023-05-10T19:15:28.147Z,13.38
2023-05-10T19:17:58.681Z,10.57
2023-05-10T19:20:26.037Z,8.35
2023-05-10T19:23:09.132Z,9.93
2023-05-10T19:28:07.631Z,12.10
2023-05-10T19:30:35.808Z,11.95
2023-05-10T19:33:04.954Z,9.07
2023-05-10T19:35:32.387Z,8.68
2023-05-10T19:37:59.863Z,10.32
2023-05-10T19:40:26.961Z,6.72
2023-05-10T19:42:54.356Z,8.02
2023-05-10T19:45:21.719Z,7.93
2023-05-10T19:47:49.210Z,8.50
2023-05-10T19:50:16.535Z,9.02
2023-05-10T19:52:46.415Z,8.38
2023-05-10T19:55:24.870Z,7.80
2023-05-10T19:57:52.205Z,8.55
2023-05-10T20:00:19.443Z,8.07
2023-05-10T20:02:47.211Z,11.60
2023-05-10T20:05:18.177Z,9.98
2023-05-10T20:07:48.387Z,8.27
2023-05-10T20:10:16.887Z,7.32
2023-05-10T20:12:48.593Z,10.27
2023-05-10T20:15:15.866Z,8.35
2023-05-10T20:17:49.803Z,8.57
2023-05-10T20:20:17.730Z,9.85
2023-05-10T20:22:47.951Z,9.77
2023-05-10T20:25:16.036Z,7.25
2023-05-10T20:27:46.153Z,8.50
2023-05-10T20:30:13.628Z,7.70
2023-05-10T20:32:41.181Z,6.60
2023-05-10T20:35:08.751Z,10.13
2023-05-10T20:37:39.032Z,7.03
2023-05-10T20:40:06.631Z,7.53
2023-05-10T20:42:36.360Z,9.20
2023-05-10T20:45:03.930Z,8.38
2023-05-10T20:47:31.498Z,7.93
2023-05-10T20:50:01.104Z,6.88
2023-05-10T20:52:28.627Z,11.00
2023-05-10T20:54:55.742Z,12.63
2023-05-10T20:57:25.561Z,10.30
2023-05-10T20:59:58.954Z,11.93
2023-05-10T21:02:26.569Z,11.60
2023-05-10T21:04:56.326Z,15.63
2023-05-10T21:07:25.154Z,13.50
2023-05-10T21:09:52.212Z,13.98
2023-05-10T21:12:19.607Z,10.90
2023-05-10T21:14:47.795Z,10.05
2023-05-10T21:17:15.260Z,9.80
2023-05-10T21:19:42.565Z,10.85
2023-05-10T21:22:10.203Z,10.40
2023-05-10T21:24:37.216Z,9.73
2023-05-10T21:27:12.190Z,9.68
2023-05-10T21:29:44.275Z,7.75
2023-05-10T21:32:11.761Z,11.30
2023-05-10T21:34:41.001Z,10.70
2023-05-10T21:37:08.496Z,12.30
2023-05-10T21:39:38.496Z,10.32
2023-05-10T21:42:05.833Z,11.43
2023-05-10T21:44:32.873Z,12.38
2023-05-10T21:47:03.013Z,13.95
2023-05-10T21:49:31.125Z,16.02
2023-05-10T21:52:00.972Z,20.02
2023-05-10T21:54:33.004Z,16.25
2023-05-10T21:57:02.786Z,15.40
2023-05-10T21:59:32.152Z,14.52
2023-05-10T22:01:59.562Z,13.07
2023-05-10T22:04:26.645Z,13.38
2023-05-10T22:06:56.213Z,11.23
2023-05-10T22:09:23.344Z,12.25
2023-05-10T22:11:50.856Z,11.50
2023-05-10T22:14:18.119Z,9.07
2023-05-10T22:16:45.632Z,10.18
2023-05-10T22:19:12.699Z,10.32
2023-05-10T22:21:42.342Z,9.25
2023-05-10T22:24:09.379Z,10.00
2023-05-10T22:26:39.208Z,9.73
2023-05-10T22:29:06.343Z,11.55
2023-05-10T22:31:33.764Z,12.50
2023-05-10T22:34:00.990Z,10.25
2023-05-10T22:36:31.141Z,10.18
2023-05-10T22:38:58.317Z,9.70
2023-05-10T22:41:25.652Z,9.60
2023-05-10T22:43:52.718Z,10.65
2023-05-10T22:46:20.172Z,10.43
2023-05-10T22:48:48.155Z,11.75
2023-05-10T22:51:17.814Z,9.93
2023-05-10T22:53:45.293Z,10.48
2023-05-10T22:56:14.980Z,11.07
2023-05-10T22:58:42.108Z,12.70
2023-05-10T23:01:14.380Z,9.93
2023-05-10T23:03:41.673Z,11.02
2023-05-10T23:06:09.002Z,9.20
2023-05-10T23:08:36.053Z,10.32
2023-05-10T23:11:03.379Z,9.63
2023-05-10T23:13:32.696Z,9.00
2023-05-10T23:16:05.945Z,11.18
2023-05-10T23:18:35.432Z,8.95
2023-05-10T23:21:05.081Z,10.63
2023-05-10T23:23:32.223Z,11.05
2023-05-10T23:26:00.181Z,9.65
2023-05-10T23:28:27.219Z,11.40
2023-05-10T23:30:55.882Z,10.43
2023-05-10T23:33:23.393Z,9.23
2023-05-10T23:35:50.796Z,12.88
2023-05-10T23:38:17.872Z,8.23
2023-05-10T23:40:48.857Z,8.65
2023-05-10T23:43:17.011Z,8.23
2023-05-10T23:45:54.673Z,10.43
2023-05-10T23:48:24.157Z,10.25
2023-05-10T23:50:53.767Z,8.25
2023-05-10T23:53:20.878Z,8.40
2023-05-10T23:55:48.339Z,7.80
2023-05-10T23:58:17.712Z,9.18
